Terminal Aerodrome Forecast
Issued by NWS

Home | Current Version | Previous Version | Text Only | Print | Product List | Glossary On
Versions: 1 2 3 4 5 6 7 8 9 10 11 12 13 14 15 16 17
000
FTUS41 KGYX 250520
TAFAUG
TAF
KAUG 250520Z 2506/2606 30003KT P6SM SKC
     FM251000 31001KT 1 1/2SM BR SKC
     FM251200 30001KT 3SM BR SKC
     FM251300 VRB03KT P6SM SCT050
     FM260000 19004KT 6SM HZ BR SKC
     FM260400 20003KT 1/2SM FG SKC=

USA.gov is the U.S. government's official web portal to all federal, state and local government web resources and services.